sensor_id;sensor_type;location;lat;lon;timestamp;P1;durP1;ratioP1;P2;durP2;ratioP2
5559;SDS011;2803;47.916;8.074;2024-03-08T00:01:35;45.97;;;20.33;;
5559;SDS011;2803;47.916;8.074;2024-03-08T00:04:01;49.50;;;19.97;;
5559;SDS011;2803;47.916;8.074;2024-03-08T00:06:28;45.73;;;20.90;;
5559;SDS011;2803;47.916;8.074;2024-03-08T00:08:55;42.43;;;20.40;;
5559;SDS011;2803;47.916;8.074;2024-03-08T00:11:22;45.07;;;20.63;;
5559;SDS011;2803;47.916;8.074;2024-03-08T00:13:52;43.67;;;20.53;;
5559;SDS011;2803;47.916;8.074;2024-03-08T00:16:18;44.97;;;21.00;;
5559;SDS011;2803;47.916;8.074;2024-03-08T00:18:45;44.03;;;20.00;;
5559;SDS011;2803;47.916;8.074;2024-03-08T00:21:14;44.27;;;20.10;;
5559;SDS011;2803;47.916;8.074;2024-03-08T00:23:41;50.80;;;21.57;;
5559;SDS011;2803;47.916;8.074;2024-03-08T00:26:07;45.10;;;21.50;;
5559;SDS011;2803;47.916;8.074;2024-03-08T00:28:34;45.63;;;19.63;;
5559;SDS011;2803;47.916;8.074;2024-03-08T00:31:02;47.10;;;19.80;;
5559;SDS011;2803;47.916;8.074;2024-03-08T00:33:29;45.57;;;20.00;;
5559;SDS011;2803;47.916;8.074;2024-03-08T00:35:56;44.53;;;20.07;;
5559;SDS011;2803;47.916;8.074;2024-03-08T00:38:22;49.73;;;21.47;;
5559;SDS011;2803;47.916;8.074;2024-03-08T00:40:49;47.20;;;20.33;;
5559;SDS011;2803;47.916;8.074;2024-03-08T00:43:16;37.13;;;18.07;;
5559;SDS011;2803;47.916;8.074;2024-03-08T00:45:42;46.40;;;20.43;;
5559;SDS011;2803;47.916;8.074;2024-03-08T00:48:10;45.77;;;18.60;;
5559;SDS011;2803;47.916;8.074;2024-03-08T00:50:37;46.13;;;20.33;;
5559;SDS011;2803;47.916;8.074;2024-03-08T00:53:03;49.30;;;22.33;;
5559;SDS011;2803;47.916;8.074;2024-03-08T00:55:30;48.03;;;20.40;;
5559;SDS011;2803;47.916;8.074;2024-03-08T00:57:58;45.37;;;19.07;;
5559;SDS011;2803;47.916;8.074;2024-03-08T01:00:24;40.60;;;18.40;;
5559;SDS011;2803;47.916;8.074;2024-03-08T01:02:51;44.63;;;18.90;;
5559;SDS011;2803;47.916;8.074;2024-03-08T01:05:19;41.13;;;18.80;;
5559;SDS011;2803;47.916;8.074;2024-03-08T01:07:46;40.30;;;19.73;;
5559;SDS011;2803;47.916;8.074;2024-03-08T01:10:12;41.60;;;19.40;;
5559;SDS011;2803;47.916;8.074;2024-03-08T01:12:39;42.20;;;17.90;;
5559;SDS011;2803;47.916;8.074;2024-03-08T01:22:30;39.83;;;17.83;;
5559;SDS011;2803;47.916;8.074;2024-03-08T01:24:57;42.90;;;18.70;;
5559;SDS011;2803;47.916;8.074;2024-03-08T01:27:24;39.27;;;18.80;;
5559;SDS011;2803;47.916;8.074;2024-03-08T01:29:50;39.07;;;18.13;;
5559;SDS011;2803;47.916;8.074;2024-03-08T01:32:17;39.40;;;16.77;;
5559;SDS011;2803;47.916;8.074;2024-03-08T01:34:44;43.37;;;17.93;;
5559;SDS011;2803;47.916;8.074;2024-03-08T01:37:11;39.53;;;18.23;;
5559;SDS011;2803;47.916;8.074;2024-03-08T01:39:40;47.33;;;19.33;;
5559;SDS011;2803;47.916;8.074;2024-03-08T01:42:07;44.20;;;18.30;;
5559;SDS011;2803;47.916;8.074;2024-03-08T01:44:36;44.80;;;20.80;;
5559;SDS011;2803;47.916;8.074;2024-03-08T01:47:03;40.20;;;17.70;;
5559;SDS011;2803;47.916;8.074;2024-03-08T01:49:29;39.13;;;17.47;;
5559;SDS011;2803;47.916;8.074;2024-03-08T01:51:56;39.97;;;17.37;;
5559;SDS011;2803;47.916;8.074;2024-03-08T01:54:23;38.13;;;16.93;;
5559;SDS011;2803;47.916;8.074;2024-03-08T01:56:51;36.20;;;16.80;;
5559;SDS011;2803;47.916;8.074;2024-03-08T01:59:19;40.90;;;17.23;;
5559;SDS011;2803;47.916;8.074;2024-03-08T02:01:46;41.50;;;18.73;;
5559;SDS011;2803;47.916;8.074;2024-03-08T02:04:12;43.33;;;18.47;;
5559;SDS011;2803;47.916;8.074;2024-03-08T02:06:39;45.80;;;19.90;;
5559;SDS011;2803;47.916;8.074;2024-03-08T02:09:06;40.20;;;17.00;;
5559;SDS011;2803;47.916;8.074;2024-03-08T02:11:33;34.07;;;16.57;;
5559;SDS011;2803;47.916;8.074;2024-03-08T02:14:03;38.03;;;17.00;;
5559;SDS011;2803;47.916;8.074;2024-03-08T02:16:31;41.90;;;18.53;;
5559;SDS011;2803;47.916;8.074;2024-03-08T02:18:58;42.90;;;18.53;;
5559;SDS011;2803;47.916;8.074;2024-03-08T02:21:26;40.87;;;18.20;;
5559;SDS011;2803;47.916;8.074;2024-03-08T02:23:53;42.43;;;19.30;;
5559;SDS011;2803;47.916;8.074;2024-03-08T02:26:19;37.70;;;17.20;;
5559;SDS011;2803;47.916;8.074;2024-03-08T02:28:47;43.37;;;18.37;;
5559;SDS011;2803;47.916;8.074;2024-03-08T02:31:14;46.40;;;17.67;;
5559;SDS011;2803;47.916;8.074;2024-03-08T02:33:41;39.63;;;18.20;;
5559;SDS011;2803;47.916;8.074;2024-03-08T02:36:08;37.73;;;16.93;;
5559;SDS011;2803;47.916;8.074;2024-03-08T02:38:36;39.93;;;17.07;;
5559;SDS011;2803;47.916;8.074;2024-03-08T02:41:04;40.27;;;17.07;;
5559;SDS011;2803;47.916;8.074;2024-03-08T02:43:31;35.10;;;15.87;;
5559;SDS011;2803;47.916;8.074;2024-03-08T02:45:59;38.00;;;17.27;;
5559;SDS011;2803;47.916;8.074;2024-03-08T02:48:25;44.03;;;17.60;;
5559;SDS011;2803;47.916;8.074;2024-03-08T02:50:52;36.10;;;17.07;;
5559;SDS011;2803;47.916;8.074;2024-03-08T02:53:18;35.67;;;17.27;;
5559;SDS011;2803;47.916;8.074;2024-03-08T02:55:46;39.20;;;17.67;;
5559;SDS011;2803;47.916;8.074;2024-03-08T02:58:13;41.37;;;17.53;;
5559;SDS011;2803;47.916;8.074;2024-03-08T03:00:40;36.40;;;17.97;;
5559;SDS011;2803;47.916;8.074;2024-03-08T03:03:06;35.70;;;15.90;;
5559;SDS011;2803;47.916;8.074;2024-03-08T03:05:33;37.87;;;16.30;;
5559;SDS011;2803;47.916;8.074;2024-03-08T03:08:00;40.30;;;16.73;;
5559;SDS011;2803;47.916;8.074;2024-03-08T03:10:29;39.67;;;17.27;;
5559;SDS011;2803;47.916;8.074;2024-03-08T03:12:57;38.63;;;16.20;;
5559;SDS011;2803;47.916;8.074;2024-03-08T03:15:25;33.83;;;15.60;;
5559;SDS011;2803;47.916;8.074;2024-03-08T03:17:51;34.50;;;14.63;;
5559;SDS011;2803;47.916;8.074;2024-03-08T03:20:18;38.33;;;16.53;;
5559;SDS011;2803;47.916;8.074;2024-03-08T03:22:51;38.13;;;15.60;;
5559;SDS011;2803;47.916;8.074;2024-03-08T03:25:18;34.70;;;16.57;;
5559;SDS011;2803;47.916;8.074;2024-03-08T03:27:50;35.73;;;15.80;;
5559;SDS011;2803;47.916;8.074;2024-03-08T03:30:18;40.23;;;14.87;;
5559;SDS011;2803;47.916;8.074;2024-03-08T03:32:46;36.70;;;15.50;;
5559;SDS011;2803;47.916;8.074;2024-03-08T03:35:13;36.00;;;15.80;;
5559;SDS011;2803;47.916;8.074;2024-03-08T03:37:41;32.67;;;14.50;;
5559;SDS011;2803;47.916;8.074;2024-03-08T03:40:10;41.70;;;17.10;;
5559;SDS011;2803;47.916;8.074;2024-03-08T03:42:37;36.53;;;15.17;;
5559;SDS011;2803;47.916;8.074;2024-03-08T03:45:05;35.43;;;16.93;;
5559;SDS011;2803;47.916;8.074;2024-03-08T03:47:33;34.27;;;14.90;;
5559;SDS011;2803;47.916;8.074;2024-03-08T03:49:59;40.70;;;15.90;;
5559;SDS011;2803;47.916;8.074;2024-03-08T03:52:28;35.30;;;15.50;;
5559;SDS011;2803;47.916;8.074;2024-03-08T03:54:54;39.37;;;16.20;;
5559;SDS011;2803;47.916;8.074;2024-03-08T03:57:21;41.23;;;17.43;;
5559;SDS011;2803;47.916;8.074;2024-03-08T03:59:48;36.00;;;16.00;;
5559;SDS011;2803;47.916;8.074;2024-03-08T04:02:16;41.70;;;18.03;;
5559;SDS011;2803;47.916;8.074;2024-03-08T04:04:44;38.90;;;16.63;;
5559;SDS011;2803;47.916;8.074;2024-03-08T04:07:11;37.77;;;15.87;;
5559;SDS011;2803;47.916;8.074;2024-03-08T04:09:38;36.53;;;17.17;;
5559;SDS011;2803;47.916;8.074;2024-03-08T04:12:04;44.83;;;16.13;;
5559;SDS011;2803;47.916;8.074;2024-03-08T04:14:32;38.63;;;16.23;;
5559;SDS011;2803;47.916;8.074;2024-03-08T04:16:59;33.53;;;15.17;;
5559;SDS011;2803;47.916;8.074;2024-03-08T04:19:26;38.53;;;16.20;;
5559;SDS011;2803;47.916;8.074;2024-03-08T04:21:54;32.30;;;15.43;;
5559;SDS011;2803;47.916;8.074;2024-03-08T04:24:21;31.07;;;14.53;;
5559;SDS011;2803;47.916;8.074;2024-03-08T04:26:47;38.57;;;15.27;;
5559;SDS011;2803;47.916;8.074;2024-03-08T04:29:14;35.17;;;16.00;;
5559;SDS011;2803;47.916;8.074;2024-03-08T04:31:42;33.03;;;14.10;;
5559;SDS011;2803;47.916;8.074;2024-03-08T04:34:09;40.57;;;16.80;;
5559;SDS011;2803;47.916;8.074;2024-03-08T04:36:36;34.30;;;14.20;;
5559;SDS011;2803;47.916;8.074;2024-03-08T04:39:04;41.87;;;17.20;;
5559;SDS011;2803;47.916;8.074;2024-03-08T04:41:30;34.23;;;14.83;;
5559;SDS011;2803;47.916;8.074;2024-03-08T04:43:59;41.17;;;17.07;;
5559;SDS011;2803;47.916;8.074;2024-03-08T04:46:26;35.43;;;15.50;;
5559;SDS011;2803;47.916;8.074;2024-03-08T04:48:53;42.03;;;16.53;;
5559;SDS011;2803;47.916;8.074;2024-03-08T04:51:20;33.43;;;14.30;;
5559;SDS011;2803;47.916;8.074;2024-03-08T04:53:46;35.40;;;15.43;;
5559;SDS011;2803;47.916;8.074;2024-03-08T04:56:14;37.63;;;14.93;;
5559;SDS011;2803;47.916;8.074;2024-03-08T04:58:41;35.13;;;14.57;;
5559;SDS011;2803;47.916;8.074;2024-03-08T05:01:07;27.20;;;13.60;;
5559;SDS011;2803;47.916;8.074;2024-03-08T05:03:35;29.57;;;13.87;;
5559;SDS011;2803;47.916;8.074;2024-03-08T05:06:03;41.43;;;15.40;;
5559;SDS011;2803;47.916;8.074;2024-03-08T05:08:30;33.90;;;14.80;;
5559;SDS011;2803;47.916;8.074;2024-03-08T05:10:56;36.87;;;14.90;;
5559;SDS011;2803;47.916;8.074;2024-03-08T05:13:24;36.33;;;14.10;;
5559;SDS011;2803;47.916;8.074;2024-03-08T05:15:52;37.10;;;16.47;;
5559;SDS011;2803;47.916;8.074;2024-03-08T05:18:19;38.50;;;17.33;;
5559;SDS011;2803;47.916;8.074;2024-03-08T05:20:46;36.80;;;15.87;;
5559;SDS011;2803;47.916;8.074;2024-03-08T05:23:13;33.30;;;15.10;;
5559;SDS011;2803;47.916;8.074;2024-03-08T05:25:40;37.67;;;15.30;;
5559;SDS011;2803;47.916;8.074;2024-03-08T05:28:07;33.60;;;14.90;;
5559;SDS011;2803;47.916;8.074;2024-03-08T05:30:36;37.90;;;14.67;;
5559;SDS011;2803;47.916;8.074;2024-03-08T05:33:04;34.10;;;14.50;;
5559;SDS011;2803;47.916;8.074;2024-03-08T05:35:35;40.73;;;16.17;;
5559;SDS011;2803;47.916;8.074;2024-03-08T05:38:01;33.47;;;14.73;;
5559;SDS011;2803;47.916;8.074;2024-03-08T05:40:28;36.80;;;14.67;;
5559;SDS011;2803;47.916;8.074;2024-03-08T05:42:56;38.20;;;17.50;;
5559;SDS011;2803;47.916;8.074;2024-03-08T05:45:23;39.23;;;15.80;;
5559;SDS011;2803;47.916;8.074;2024-03-08T05:47:51;39.87;;;16.07;;
5559;SDS011;2803;47.916;8.074;2024-03-08T05:50:18;37.67;;;15.50;;
5559;SDS011;2803;47.916;8.074;2024-03-08T05:52:45;36.30;;;14.80;;
5559;SDS011;2803;47.916;8.074;2024-03-08T05:55:12;33.97;;;14.23;;
5559;SDS011;2803;47.916;8.074;2024-03-08T05:57:39;37.20;;;14.93;;
5559;SDS011;2803;47.916;8.074;2024-03-08T06:00:07;35.43;;;14.60;;
5559;SDS011;2803;47.916;8.074;2024-03-08T06:02:36;36.77;;;13.87;;
5559;SDS011;2803;47.916;8.074;2024-03-08T06:05:07;36.20;;;15.50;;
5559;SDS011;2803;47.916;8.074;2024-03-08T06:07:34;30.30;;;13.30;;
5559;SDS011;2803;47.916;8.074;2024-03-08T06:10:01;33.97;;;14.20;;
5559;SDS011;2803;47.916;8.074;2024-03-08T06:12:28;32.50;;;14.00;;
5559;SDS011;2803;47.916;8.074;2024-03-08T06:14:58;30.13;;;14.40;;
5559;SDS011;2803;47.916;8.074;2024-03-08T06:17:25;30.83;;;14.07;;
5559;SDS011;2803;47.916;8.074;2024-03-08T06:19:51;31.90;;;13.37;;
5559;SDS011;2803;47.916;8.074;2024-03-08T06:22:20;35.80;;;15.57;;
5559;SDS011;2803;47.916;8.074;2024-03-08T06:24:47;33.70;;;15.73;;
5559;SDS011;2803;47.916;8.074;2024-03-08T06:27:13;32.87;;;14.77;;
5559;SDS011;2803;47.916;8.074;2024-03-08T06:29:40;32.70;;;15.43;;
5559;SDS011;2803;47.916;8.074;2024-03-08T06:32:06;30.90;;;12.67;;
5559;SDS011;2803;47.916;8.074;2024-03-08T06:34:33;29.80;;;13.50;;
5559;SDS011;2803;47.916;8.074;2024-03-08T06:37:00;30.40;;;13.10;;
5559;SDS011;2803;47.916;8.074;2024-03-08T06:39:28;34.80;;;14.60;;
5559;SDS011;2803;47.916;8.074;2024-03-08T06:41:56;34.00;;;14.20;;
5559;SDS011;2803;47.916;8.074;2024-03-08T06:44:23;31.17;;;13.73;;
5559;SDS011;2803;47.916;8.074;2024-03-08T06:46:50;31.17;;;13.73;;
5559;SDS011;2803;47.916;8.074;2024-03-08T06:49:17;33.10;;;13.93;;
5559;SDS011;2803;47.916;8.074;2024-03-08T06:51:44;26.57;;;12.73;;
5559;SDS011;2803;47.916;8.074;2024-03-08T06:54:11;31.87;;;13.40;;
5559;SDS011;2803;47.916;8.074;2024-03-08T06:56:39;25.20;;;12.20;;
5559;SDS011;2803;47.916;8.074;2024-03-08T06:59:05;30.53;;;12.77;;
5559;SDS011;2803;47.916;8.074;2024-03-08T07:01:34;25.20;;;11.23;;
5559;SDS011;2803;47.916;8.074;2024-03-08T07:04:01;26.60;;;11.47;;
5559;SDS011;2803;47.916;8.074;2024-03-08T07:06:30;27.47;;;11.23;;
5559;SDS011;2803;47.916;8.074;2024-03-08T07:08:58;34.63;;;12.13;;
5559;SDS011;2803;47.916;8.074;2024-03-08T07:11:25;33.17;;;13.50;;
5559;SDS011;2803;47.916;8.074;2024-03-08T07:13:52;30.77;;;12.13;;
5559;SDS011;2803;47.916;8.074;2024-03-08T07:16:19;27.67;;;12.30;;
5559;SDS011;2803;47.916;8.074;2024-03-08T07:18:46;33.47;;;13.50;;
5559;SDS011;2803;47.916;8.074;2024-03-08T07:21:13;28.40;;;13.07;;
5559;SDS011;2803;47.916;8.074;2024-03-08T07:23:40;28.40;;;12.40;;
5559;SDS011;2803;47.916;8.074;2024-03-08T07:26:27;29.83;;;12.00;;
5559;SDS011;2803;47.916;8.074;2024-03-08T07:28:56;30.40;;;13.73;;
5559;SDS011;2803;47.916;8.074;2024-03-08T07:31:25;30.70;;;11.80;;
5559;SDS011;2803;47.916;8.074;2024-03-08T07:34:03;25.83;;;11.13;;
5559;SDS011;2803;47.916;8.074;2024-03-08T07:36:32;29.13;;;12.30;;
5559;SDS011;2803;47.916;8.074;2024-03-08T07:38:59;34.80;;;13.07;;
5559;SDS011;2803;47.916;8.074;2024-03-08T07:41:26;29.33;;;12.40;;
5559;SDS011;2803;47.916;8.074;2024-03-08T07:43:54;27.17;;;10.77;;
5559;SDS011;2803;47.916;8.074;2024-03-08T07:46:22;25.77;;;12.07;;
5559;SDS011;2803;47.916;8.074;2024-03-08T07:48:48;31.67;;;11.63;;
5559;SDS011;2803;47.916;8.074;2024-03-08T07:51:15;24.90;;;11.57;;
5559;SDS011;2803;47.916;8.074;2024-03-08T07:53:42;22.83;;;11.30;;
5559;SDS011;2803;47.916;8.074;2024-03-08T07:56:09;28.13;;;12.20;;
5559;SDS011;2803;47.916;8.074;2024-03-08T07:58:38;29.33;;;12.50;;
5559;SDS011;2803;47.916;8.074;2024-03-08T08:01:05;32.13;;;14.10;;
5559;SDS011;2803;47.916;8.074;2024-03-08T08:03:33;27.80;;;13.40;;
5559;SDS011;2803;47.916;8.074;2024-03-08T08:06:02;28.83;;;11.90;;
5559;SDS011;2803;47.916;8.074;2024-03-08T08:08:29;25.67;;;11.93;;
5559;SDS011;2803;47.916;8.074;2024-03-08T08:10:57;30.60;;;12.73;;
5559;SDS011;2803;47.916;8.074;2024-03-08T08:13:24;22.97;;;10.60;;
5559;SDS011;2803;47.916;8.074;2024-03-08T08:15:52;27.97;;;12.83;;
5559;SDS011;2803;47.916;8.074;2024-03-08T08:18:19;30.60;;;12.43;;
5559;SDS011;2803;47.916;8.074;2024-03-08T08:20:51;21.40;;;10.97;;
5559;SDS011;2803;47.916;8.074;2024-03-08T08:23:18;27.47;;;11.40;;
5559;SDS011;2803;47.916;8.074;2024-03-08T08:25:45;20.40;;;10.30;;
5559;SDS011;2803;47.916;8.074;2024-03-08T08:28:14;26.20;;;11.83;;
5559;SDS011;2803;47.916;8.074;2024-03-08T08:30:42;24.50;;;10.70;;
5559;SDS011;2803;47.916;8.074;2024-03-08T08:33:09;21.90;;;10.20;;
5559;SDS011;2803;47.916;8.074;2024-03-08T08:35:35;22.20;;;11.17;;
5559;SDS011;2803;47.916;8.074;2024-03-08T08:38:03;24.50;;;11.03;;
5559;SDS011;2803;47.916;8.074;2024-03-08T08:40:30;20.07;;;9.80;;
5559;SDS011;2803;47.916;8.074;2024-03-08T08:42:57;28.70;;;11.57;;
5559;SDS011;2803;47.916;8.074;2024-03-08T08:45:24;23.93;;;10.17;;
5559;SDS011;2803;47.916;8.074;2024-03-08T08:47:51;25.10;;;11.80;;
5559;SDS011;2803;47.916;8.074;2024-03-08T08:50:19;21.47;;;10.10;;
5559;SDS011;2803;47.916;8.074;2024-03-08T08:52:48;20.13;;;9.53;;
5559;SDS011;2803;47.916;8.074;2024-03-08T08:55:16;20.87;;;10.53;;
5559;SDS011;2803;47.916;8.074;2024-03-08T08:57:45;23.57;;;10.30;;
5559;SDS011;2803;47.916;8.074;2024-03-08T09:00:12;20.63;;;9.40;;
5559;SDS011;2803;47.916;8.074;2024-03-08T09:02:40;17.47;;;8.70;;
5559;SDS011;2803;47.916;8.074;2024-03-08T09:05:07;16.27;;;8.73;;
5559;SDS011;2803;47.916;8.074;2024-03-08T09:07:34;20.60;;;9.40;;
5559;SDS011;2803;47.916;8.074;2024-03-08T09:10:00;20.50;;;9.63;;
5559;SDS011;2803;47.916;8.074;2024-03-08T09:12:28;18.13;;;9.00;;
5559;SDS011;2803;47.916;8.074;2024-03-08T09:14:57;15.27;;;8.03;;
5559;SDS011;2803;47.916;8.074;2024-03-08T09:17:24;17.07;;;9.30;;
5559;SDS011;2803;47.916;8.074;2024-03-08T09:19:51;20.50;;;10.07;;
5559;SDS011;2803;47.916;8.074;2024-03-08T09:22:19;17.50;;;8.33;;
5559;SDS011;2803;47.916;8.074;2024-03-08T09:24:45;18.70;;;8.90;;
5559;SDS011;2803;47.916;8.074;2024-03-08T09:27:12;16.77;;;8.83;;
5559;SDS011;2803;47.916;8.074;2024-03-08T09:29:40;17.60;;;9.00;;
5559;SDS011;2803;47.916;8.074;2024-03-08T09:32:07;16.67;;;8.67;;
5559;SDS011;2803;47.916;8.074;2024-03-08T09:34:35;16.97;;;8.90;;
5559;SDS011;2803;47.916;8.074;2024-03-08T09:37:02;15.60;;;8.43;;
5559;SDS011;2803;47.916;8.074;2024-03-08T09:39:29;17.23;;;8.03;;
5559;SDS011;2803;47.916;8.074;2024-03-08T09:41:56;14.20;;;8.13;;
5559;SDS011;2803;47.916;8.074;2024-03-08T09:44:23;13.83;;;8.27;;
5559;SDS011;2803;47.916;8.074;2024-03-08T09:46:51;17.10;;;8.60;;
5559;SDS011;2803;47.916;8.074;2024-03-08T09:49:18;15.60;;;8.60;;
5559;SDS011;2803;47.916;8.074;2024-03-08T09:51:45;13.93;;;8.77;;
5559;SDS011;2803;47.916;8.074;2024-03-08T09:54:12;13.87;;;8.30;;
5559;SDS011;2803;47.916;8.074;2024-03-08T09:56:39;14.30;;;8.30;;
5559;SDS011;2803;47.916;8.074;2024-03-08T09:59:09;12.60;;;7.67;;
5559;SDS011;2803;47.916;8.074;2024-03-08T10:01:51;17.10;;;8.97;;
5559;SDS011;2803;47.916;8.074;2024-03-08T10:04:21;14.90;;;8.20;;
5559;SDS011;2803;47.916;8.074;2024-03-08T10:06:48;16.83;;;9.80;;
5559;SDS011;2803;47.916;8.074;2024-03-08T10:09:14;15.33;;;8.53;;
5559;SDS011;2803;47.916;8.074;2024-03-08T10:11:41;15.53;;;8.80;;
5559;SDS011;2803;47.916;8.074;2024-03-08T10:14:08;14.07;;;8.43;;
5559;SDS011;2803;47.916;8.074;2024-03-08T10:16:35;14.63;;;8.17;;
5559;SDS011;2803;47.916;8.074;2024-03-08T10:19:03;19.30;;;9.40;;
5559;SDS011;2803;47.916;8.074;2024-03-08T10:21:30;20.50;;;9.70;;
5559;SDS011;2803;47.916;8.074;2024-03-08T10:23:58;16.00;;;7.77;;
5559;SDS011;2803;47.916;8.074;2024-03-08T10:26:25;15.97;;;8.57;;
5559;SDS011;2803;47.916;8.074;2024-03-08T10:28:53;13.20;;;7.90;;
5559;SDS011;2803;47.916;8.074;2024-03-08T10:31:19;11.53;;;7.30;;
5559;SDS011;2803;47.916;8.074;2024-03-08T10:33:47;16.30;;;8.57;;
5559;SDS011;2803;47.916;8.074;2024-03-08T10:36:16;15.07;;;8.43;;
5559;SDS011;2803;47.916;8.074;2024-03-08T10:38:44;13.60;;;8.80;;
5559;SDS011;2803;47.916;8.074;2024-03-08T10:41:12;11.70;;;7.17;;
5559;SDS011;2803;47.916;8.074;2024-03-08T10:43:44;13.33;;;8.27;;
5559;SDS011;2803;47.916;8.074;2024-03-08T10:46:21;11.70;;;7.23;;
5559;SDS011;2803;47.916;8.074;2024-03-08T10:48:55;13.80;;;7.60;;
5559;SDS011;2803;47.916;8.074;2024-03-08T10:51:25;14.53;;;7.67;;
5559;SDS011;2803;47.916;8.074;2024-03-08T10:53:55;11.73;;;6.47;;
5559;SDS011;2803;47.916;8.074;2024-03-08T10:56:23;12.13;;;6.97;;
5559;SDS011;2803;47.916;8.074;2024-03-08T10:58:52;11.50;;;6.90;;
5559;SDS011;2803;47.916;8.074;2024-03-08T11:01:20;11.30;;;6.40;;
5559;SDS011;2803;47.916;8.074;2024-03-08T11:03:47;11.60;;;6.40;;
5559;SDS011;2803;47.916;8.074;2024-03-08T11:06:18;9.07;;;5.90;;
5559;SDS011;2803;47.916;8.074;2024-03-08T11:08:49;10.80;;;6.57;;
5559;SDS011;2803;47.916;8.074;2024-03-08T11:11:23;11.17;;;6.10;;
5559;SDS011;2803;47.916;8.074;2024-03-08T11:13:55;8.50;;;5.30;;
5559;SDS011;2803;47.916;8.074;2024-03-08T11:16:36;10.07;;;5.63;;
5559;SDS011;2803;47.916;8.074;2024-03-08T11:19:06;7.73;;;5.17;;
5559;SDS011;2803;47.916;8.074;2024-03-08T11:21:50;9.03;;;4.03;;
5559;SDS011;2803;47.916;8.074;2024-03-08T11:24:25;6.87;;;4.13;;
5559;SDS011;2803;47.916;8.074;2024-03-08T11:26:54;6.30;;;3.23;;
5559;SDS011;2803;47.916;8.074;2024-03-08T11:29:32;6.40;;;3.77;;
5559;SDS011;2803;47.916;8.074;2024-03-08T11:32:03;8.47;;;4.13;;
5559;SDS011;2803;47.916;8.074;2024-03-08T11:34:31;6.87;;;4.67;;
5559;SDS011;2803;47.916;8.074;2024-03-08T11:36:58;12.63;;;4.43;;
5559;SDS011;2803;47.916;8.074;2024-03-08T11:39:26;5.57;;;3.63;;
5559;SDS011;2803;47.916;8.074;2024-03-08T11:41:53;7.43;;;4.30;;
5559;SDS011;2803;47.916;8.074;2024-03-08T11:44:20;4.67;;;2.80;;
5559;SDS011;2803;47.916;8.074;2024-03-08T11:46:47;4.43;;;3.00;;
5559;SDS011;2803;47.916;8.074;2024-03-08T11:49:13;5.90;;;3.57;;
5559;SDS011;2803;47.916;8.074;2024-03-08T11:51:39;4.27;;;3.20;;
5559;SDS011;2803;47.916;8.074;2024-03-08T11:54:06;6.00;;;3.40;;
5559;SDS011;2803;47.916;8.074;2024-03-08T11:56:38;5.17;;;3.27;;
5559;SDS011;2803;47.916;8.074;2024-03-08T11:59:06;4.10;;;3.30;;
5559;SDS011;2803;47.916;8.074;2024-03-08T12:01:37;3.57;;;2.70;;
5559;SDS011;2803;47.916;8.074;2024-03-08T12:04:04;5.90;;;2.87;;
5559;SDS011;2803;47.916;8.074;2024-03-08T12:06:36;3.60;;;2.20;;
5559;SDS011;2803;47.916;8.074;2024-03-08T12:09:04;1.93;;;1.50;;
5559;SDS011;2803;47.916;8.074;2024-03-08T12:11:34;2.37;;;1.57;;
5559;SDS011;2803;47.916;8.074;2024-03-08T12:14:02;2.43;;;1.60;;
5559;SDS011;2803;47.916;8.074;2024-03-08T12:16:29;2.93;;;1.90;;
5559;SDS011;2803;47.916;8.074;2024-03-08T12:18:55;5.17;;;1.70;;
5559;SDS011;2803;47.916;8.074;2024-03-08T12:21:23;3.13;;;1.40;;
5559;SDS011;2803;47.916;8.074;2024-03-08T12:24:02;1.60;;;1.07;;
5559;SDS011;2803;47.916;8.074;2024-03-08T12:26:30;1.27;;;0.97;;
5559;SDS011;2803;47.916;8.074;2024-03-08T12:31:42;3.00;;;2.00;;
5559;SDS011;2803;47.916;8.074;2024-03-08T12:34:09;4.73;;;1.50;;
5559;SDS011;2803;47.916;8.074;2024-03-08T12:36:37;3.30;;;1.73;;
5559;SDS011;2803;47.916;8.074;2024-03-08T12:39:04;3.57;;;2.00;;
5559;SDS011;2803;47.916;8.074;2024-03-08T12:41:39;1.93;;;1.50;;
5559;SDS011;2803;47.916;8.074;2024-03-08T12:44:05;3.10;;;1.70;;
5559;SDS011;2803;47.916;8.074;2024-03-08T12:46:37;4.40;;;2.53;;
5559;SDS011;2803;47.916;8.074;2024-03-08T12:49:06;4.43;;;1.90;;
5559;SDS011;2803;47.916;8.074;2024-03-08T12:51:34;2.67;;;1.50;;
5559;SDS011;2803;47.916;8.074;2024-03-08T12:54:01;1.87;;;1.50;;
5559;SDS011;2803;47.916;8.074;2024-03-08T12:56:28;3.73;;;2.33;;
5559;SDS011;2803;47.916;8.074;2024-03-08T12:58:57;3.00;;;2.00;;
5559;SDS011;2803;47.916;8.074;2024-03-08T13:01:24;4.43;;;2.40;;
5559;SDS011;2803;47.916;8.074;2024-03-08T13:03:53;4.70;;;2.50;;
5559;SDS011;2803;47.916;8.074;2024-03-08T13:06:21;2.00;;;1.70;;
5559;SDS011;2803;47.916;8.074;2024-03-08T13:08:49;4.13;;;2.50;;
5559;SDS011;2803;47.916;8.074;2024-03-08T13:11:17;3.50;;;1.90;;
5559;SDS011;2803;47.916;8.074;2024-03-08T13:13:44;8.73;;;2.70;;
5559;SDS011;2803;47.916;8.074;2024-03-08T13:16:11;4.00;;;2.33;;
5559;SDS011;2803;47.916;8.074;2024-03-08T13:18:40;6.30;;;2.53;;
5559;SDS011;2803;47.916;8.074;2024-03-08T13:21:09;5.57;;;2.20;;
5559;SDS011;2803;47.916;8.074;2024-03-08T13:23:38;3.80;;;2.50;;
5559;SDS011;2803;47.916;8.074;2024-03-08T13:26:05;4.10;;;2.67;;
5559;SDS011;2803;47.916;8.074;2024-03-08T13:28:32;5.23;;;3.03;;
5559;SDS011;2803;47.916;8.074;2024-03-08T13:31:02;4.90;;;2.80;;
5559;SDS011;2803;47.916;8.074;2024-03-08T13:33:32;3.30;;;2.73;;
5559;SDS011;2803;47.916;8.074;2024-03-08T13:36:01;8.23;;;3.60;;
5559;SDS011;2803;47.916;8.074;2024-03-08T13:38:30;5.70;;;3.50;;
5559;SDS011;2803;47.916;8.074;2024-03-08T13:40:58;7.30;;;3.80;;
5559;SDS011;2803;47.916;8.074;2024-03-08T13:43:24;8.07;;;4.10;;
5559;SDS011;2803;47.916;8.074;2024-03-08T13:45:53;6.97;;;3.83;;
5559;SDS011;2803;47.916;8.074;2024-03-08T13:48:20;5.20;;;3.63;;
5559;SDS011;2803;47.916;8.074;2024-03-08T13:50:47;7.93;;;4.23;;
5559;SDS011;2803;47.916;8.074;2024-03-08T13:53:14;9.30;;;4.40;;
5559;SDS011;2803;47.916;8.074;2024-03-08T13:55:42;7.40;;;4.10;;
5559;SDS011;2803;47.916;8.074;2024-03-08T13:58:09;8.20;;;4.40;;
5559;SDS011;2803;47.916;8.074;2024-03-08T14:00:39;6.93;;;4.13;;
5559;SDS011;2803;47.916;8.074;2024-03-08T14:03:08;7.00;;;4.30;;
5559;SDS011;2803;47.916;8.074;2024-03-08T14:05:38;6.30;;;4.00;;
5559;SDS011;2803;47.916;8.074;2024-03-08T14:08:05;11.83;;;4.40;;
5559;SDS011;2803;47.916;8.074;2024-03-08T14:10:32;9.53;;;5.13;;
5559;SDS011;2803;47.916;8.074;2024-03-08T14:13:00;13.80;;;5.60;;
5559;SDS011;2803;47.916;8.074;2024-03-08T14:15:27;7.30;;;4.60;;
5559;SDS011;2803;47.916;8.074;2024-03-08T14:17:55;12.67;;;5.13;;
5559;SDS011;2803;47.916;8.074;2024-03-08T14:20:22;8.97;;;5.10;;
5559;SDS011;2803;47.916;8.074;2024-03-08T14:22:50;7.90;;;5.03;;
5559;SDS011;2803;47.916;8.074;2024-03-08T14:25:17;7.30;;;4.50;;
5559;SDS011;2803;47.916;8.074;2024-03-08T14:27:44;16.57;;;4.90;;
5559;SDS011;2803;47.916;8.074;2024-03-08T14:30:13;7.10;;;4.50;;
5559;SDS011;2803;47.916;8.074;2024-03-08T14:32:57;7.97;;;4.73;;
5559;SDS011;2803;47.916;8.074;2024-03-08T14:35:24;6.07;;;3.70;;
5559;SDS011;2803;47.916;8.074;2024-03-08T14:37:51;4.50;;;3.27;;
5559;SDS011;2803;47.916;8.074;2024-03-08T14:40:18;6.60;;;3.83;;
5559;SDS011;2803;47.916;8.074;2024-03-08T14:42:47;6.53;;;3.83;;
5559;SDS011;2803;47.916;8.074;2024-03-08T14:45:15;6.43;;;3.87;;
5559;SDS011;2803;47.916;8.074;2024-03-08T14:47:44;8.10;;;3.87;;
5559;SDS011;2803;47.916;8.074;2024-03-08T14:50:14;7.40;;;3.77;;
5559;SDS011;2803;47.916;8.074;2024-03-08T14:52:42;7.60;;;4.23;;
5559;SDS011;2803;47.916;8.074;2024-03-08T14:55:08;10.03;;;4.57;;
5559;SDS011;2803;47.916;8.074;2024-03-08T14:57:38;6.60;;;3.90;;
5559;SDS011;2803;47.916;8.074;2024-03-08T15:00:06;9.27;;;4.30;;
5559;SDS011;2803;47.916;8.074;2024-03-08T15:02:42;7.90;;;4.10;;
5559;SDS011;2803;47.916;8.074;2024-03-08T15:05:08;10.60;;;5.50;;
5559;SDS011;2803;47.916;8.074;2024-03-08T15:07:36;10.00;;;4.60;;
5559;SDS011;2803;47.916;8.074;2024-03-08T15:10:04;10.57;;;5.47;;